Round Valley, Utah
Current Conditions -  °F | °C
As of 5:51 PM on Monday 22 Dec 2014 (Local Time) from KLGU Reporting Station
Light Snow Light Snow  
Wind Chill: 28°   Ceiling: 4400
Heat Index: 33°   Visibility: 7mi
Dew Point: 31°   Wind: 6mph
Humidity: 92%   Direction: 300°WNW
Pressure: 30.05"   Gusts: NA
Location:  41.8508°N, 111.23°W
Report Text: KLGU 230051Z AUTO 30005KT 7SM -SN FEW011 BKN044 OVC075 01/M01 A3005 RMK AO2 PK WND 36026/2352 WSHFT 2350 SNE36B47 SLP184 P0000 T00061006
Loading
Personal Weather Stations






























Interactive Weather Map New forecast layout! Learn more

10-Day Weather Forecast

Advertisements
Track Severe Weather on mobile